Time;durP1;ratioP1;P1;durP2;ratioP2;P2;SDS_P1;SDS_P2;PMS_P1;PMS_P2;Temp;Humidity;BMP_temperature;BMP_pressure;BME280_temperature;BME280_humidity;BME280_pressure;Samples;Min_cycle;Max_cycle;Signal;HPM_P1;HPM_P2
2024/01/31 00:01:41;;;;;;;0.10;0.10;;;;;;;4.72;100.00;98063.41;4993699;28;20046;-76
2024/01/31 00:04:27;;;;;;;0.15;0.15;;;;;;;4.74;100.00;98061.41;4987820;28;20089;-73
2024/01/31 00:07:12;;;;;;;0.10;0.10;;;;;;;4.69;100.00;98055.00;4989777;28;20384;-76
2024/01/31 00:09:58;;;;;;;0.10;0.10;;;;;;;4.72;100.00;98060.75;4992497;28;20501;-75
2024/01/31 00:12:44;;;;;;;0.10;0.10;;;;;;;4.68;100.00;98056.00;4989537;28;20050;-77
2024/01/31 00:15:30;;;;;;;0.17;0.17;;;;;;;4.67;100.00;98059.63;4989393;28;20045;-73
2024/01/31 00:18:16;;;;;;;0.17;0.17;;;;;;;4.62;100.00;98060.16;4989234;28;20046;-74
2024/01/31 00:21:02;;;;;;;0.15;0.15;;;;;;;4.53;100.00;98052.41;4988521;28;20042;-74
2024/01/31 00:23:48;;;;;;;0.20;0.20;;;;;;;4.55;100.00;98061.00;4988681;28;20080;-75
2024/01/31 00:26:34;;;;;;;0.10;0.10;;;;;;;4.52;100.00;98048.09;4989778;28;20037;-73
2024/01/31 00:29:20;;;;;;;0.10;0.10;;;;;;;4.50;100.00;98045.59;4987870;28;20085;-73
2024/01/31 00:32:06;;;;;;;0.10;0.10;;;;;;;4.48;100.00;98044.97;4989578;28;20070;-76
2024/01/31 00:34:52;;;;;;;0.20;0.20;;;;;;;4.43;100.00;98042.81;4991738;28;20038;-73
2024/01/31 00:37:37;;;;;;;0.22;0.22;;;;;;;4.35;100.00;98045.50;4989326;28;20381;-75
2024/01/31 00:40:26;;;;;;;0.10;0.10;;;;;;;4.22;100.00;98052.34;4988684;28;20058;-73
2024/01/31 00:43:12;;;;;;;0.20;0.20;;;;;;;4.18;100.00;98052.66;4989042;28;20036;-73
2024/01/31 00:45:57;;;;;;;0.20;0.20;;;;;;;4.10;100.00;98052.69;4989750;28;20655;-75
2024/01/31 00:48:43;;;;;;;0.10;0.10;;;;;;;4.08;100.00;98056.50;4988555;28;20046;-76
2024/01/31 00:51:29;;;;;;;0.10;0.10;;;;;;;4.16;100.00;98046.72;4987502;28;20479;-74
2024/01/31 00:54:15;;;;;;;0.13;0.13;;;;;;;4.21;100.00;98048.88;4989656;28;20046;-71
2024/01/31 00:57:01;;;;;;;0.17;0.17;;;;;;;4.23;100.00;98046.03;4990340;28;20115;-72
2024/01/31 00:59:47;;;;;;;0.10;0.10;;;;;;;4.28;100.00;98036.59;4989363;28;20936;-72
2024/01/31 01:02:35;;;;;;;0.13;0.13;;;;;;;4.28;100.00;98038.38;4988337;28;20092;-71
2024/01/31 01:05:21;;;;;;;0.10;0.10;;;;;;;4.35;100.00;98047.31;4989555;28;20220;-71
2024/01/31 01:08:07;;;;;;;0.17;0.17;;;;;;;4.37;100.00;98058.59;4991861;28;20100;-74
2024/01/31 01:10:55;;;;;;;0.20;0.20;;;;;;;4.38;100.00;98060.25;4991030;28;20132;-73
2024/01/31 01:13:41;;;;;;;0.10;0.10;;;;;;;4.32;100.00;98037.06;4989993;28;20038;-72
2024/01/31 01:16:27;;;;;;;0.13;0.13;;;;;;;4.44;100.00;98056.91;4986630;28;20045;-75
2024/01/31 01:19:13;;;;;;;0.10;0.10;;;;;;;4.45;100.00;98050.63;4988441;28;20100;-75
2024/01/31 01:22:00;;;;;;;0.20;0.20;;;;;;;4.45;100.00;98051.44;4987475;28;20126;-75
2024/01/31 01:24:46;;;;;;;0.20;0.20;;;;;;;4.45;100.00;98055.91;4985905;28;20038;-74
2024/01/31 01:27:31;;;;;;;0.10;0.10;;;;;;;4.46;100.00;98053.09;4989365;28;20046;-73
2024/01/31 01:30:19;;;;;;;0.20;0.20;;;;;;;4.40;100.00;98055.59;4987749;28;20073;-75
2024/01/31 01:33:05;;;;;;;0.20;0.20;;;;;;;4.40;100.00;98051.13;4988679;28;20887;-72
2024/01/31 01:35:51;;;;;;;0.10;0.10;;;;;;;4.37;100.00;98040.03;4987400;28;20157;-72
2024/01/31 01:38:37;;;;;;;0.20;0.20;;;;;;;4.43;100.00;98056.06;4990899;28;20041;-72
2024/01/31 01:41:23;;;;;;;0.10;0.10;;;;;;;4.40;100.00;98053.75;4989506;28;20042;-73
2024/01/31 01:44:08;;;;;;;0.10;0.10;;;;;;;4.44;100.00;98059.56;4989886;28;20540;-74
2024/01/31 01:46:54;;;;;;;0.10;0.10;;;;;;;4.43;100.00;98056.06;4987819;28;20038;-76
2024/01/31 01:49:40;;;;;;;0.10;0.10;;;;;;;4.42;100.00;98059.72;4988809;28;20136;-74
2024/01/31 01:52:26;;;;;;;0.10;0.10;;;;;;;4.38;100.00;98052.28;4989910;28;20038;-73
2024/01/31 01:55:12;;;;;;;0.17;0.17;;;;;;;4.40;100.00;98063.53;4988811;28;20101;-73
2024/01/31 01:57:58;;;;;;;0.20;0.20;;;;;;;4.42;100.00;98059.72;4989722;28;20038;-73
2024/01/31 02:00:46;;;;;;;0.10;0.10;;;;;;;4.44;100.00;98062.22;4987322;28;20054;-75
2024/01/31 02:03:32;;;;;;;0.20;0.20;;;;;;;4.43;100.00;98064.00;4987689;28;20634;-73
2024/01/31 02:06:18;;;;;;;0.15;0.15;;;;;;;4.44;100.00;98065.69;4985668;28;20041;-71
2024/01/31 02:09:04;;;;;;;0.20;0.20;;;;;;;4.36;100.00;98060.41;4987385;28;20417;-74
2024/01/31 02:11:50;;;;;;;0.20;0.20;;;;;;;4.37;100.00;98066.53;4986858;28;20157;-72
2024/01/31 02:14:36;;;;;;;0.13;0.13;;;;;;;4.44;100.00;98078.94;4988094;28;20294;-74
2024/01/31 02:17:22;;;;;;;0.10;0.10;;;;;;;4.44;100.00;98072.81;4987528;28;20048;-73
2024/01/31 02:20:08;;;;;;;0.10;0.10;;;;;;;4.41;100.00;98073.97;4989115;28;20129;-72
2024/01/31 02:22:55;;;;;;;0.17;0.17;;;;;;;4.41;100.00;98076.63;4988404;28;20448;-75
2024/01/31 02:25:41;;;;;;;0.15;0.15;;;;;;;4.39;100.00;98080.44;4986785;28;20196;-73
2024/01/31 02:28:27;;;;;;;0.20;0.20;;;;;;;4.40;100.00;98071.50;4990100;28;20054;-75
2024/01/31 02:31:13;;;;;;;0.20;0.20;;;;;;;4.41;100.00;98078.44;4987871;28;20053;-73
2024/01/31 02:33:59;;;;;;;0.10;0.10;;;;;;;4.36;100.00;98075.50;4988201;28;20045;-73
2024/01/31 02:36:44;;;;;;;0.20;0.20;;;;;;;4.37;100.00;98072.66;4987717;28;20360;-75
2024/01/31 02:39:31;;;;;;;0.10;0.10;;;;;;;4.35;100.00;98071.16;4984063;28;20038;-76
2024/01/31 02:42:17;;;;;;;0.10;0.10;;;;;;;4.33;100.00;98067.88;4987809;28;20472;-73
2024/01/31 02:45:03;;;;;;;0.20;0.20;;;;;;;4.25;100.00;98074.00;4986365;28;20109;-71
2024/01/31 02:47:49;;;;;;;0.10;0.10;;;;;;;4.34;100.00;98086.25;4986280;28;20096;-74
2024/01/31 02:50:38;;;;;;;0.20;0.20;;;;;;;4.33;100.00;98079.28;4985669;28;20049;-74
2024/01/31 02:53:24;;;;;;;0.20;0.20;;;;;;;4.35;100.00;98084.41;4986313;28;20073;-75
2024/01/31 02:56:09;;;;;;;0.13;0.13;;;;;;;4.32;100.00;98079.47;4986392;28;20330;-75
2024/01/31 02:58:55;;;;;;;0.10;0.10;;;;;;;4.32;100.00;98079.47;4984437;28;20523;-74
2024/01/31 03:01:45;;;;;;;0.10;0.10;;;;;;;4.31;100.00;98080.47;4986723;28;20532;-73
2024/01/31 03:04:31;;;;;;;0.20;0.20;;;;;;;4.30;100.00;98082.28;4987432;28;20389;-73
2024/01/31 03:07:17;;;;;;;0.10;0.10;;;;;;;4.29;100.00;98082.47;4990356;28;20049;-74
2024/01/31 03:10:03;;;;;;;0.10;0.10;;;;;;;4.26;100.00;98088.91;4987882;28;20078;-73
2024/01/31 03:12:49;;;;;;;0.10;0.10;;;;;;;4.29;100.00;98083.28;4987756;28;20041;-73
2024/01/31 03:15:35;;;;;;;0.10;0.10;;;;;;;4.29;100.00;98079.81;4986376;28;20488;-75
2024/01/31 03:18:21;;;;;;;0.10;0.10;;;;;;;4.24;100.00;98076.84;4979705;28;20057;-76
2024/01/31 03:21:06;;;;;;;0.10;0.10;;;;;;;4.25;100.00;98092.56;4986768;28;20042;-72
2024/01/31 03:23:52;;;;;;;0.20;0.20;;;;;;;4.26;100.00;98082.78;4986013;28;20046;-73
2024/01/31 03:26:38;;;;;;;0.10;0.10;;;;;;;4.23;100.00;98086.63;4987012;28;20045;-72
2024/01/31 03:29:24;;;;;;;0.20;0.20;;;;;;;4.22;100.00;98092.09;4985964;28;20052;-72
2024/01/31 03:32:10;;;;;;;0.10;0.10;;;;;;;4.12;100.00;98087.78;4986969;28;20042;-75
2024/01/31 03:34:55;;;;;;;0.10;0.10;;;;;;;4.19;100.00;98096.72;4986175;28;20607;-73
2024/01/31 03:37:43;;;;;;;0.17;0.17;;;;;;;4.17;100.00;98098.69;4988348;28;20061;-72
2024/01/31 03:40:29;;;;;;;0.20;0.20;;;;;;;4.14;100.00;98098.22;4984207;28;20045;-73
2024/01/31 03:43:15;;;;;;;0.10;0.10;;;;;;;4.17;100.00;98098.69;4986664;28;20108;-73
2024/01/31 03:46:05;;;;;;;0.13;0.13;;;;;;;4.23;100.00;98101.69;4986303;28;20262;-76
2024/01/31 03:48:51;;;;;;;0.10;0.10;;;;;;;4.23;100.00;98099.88;4989207;28;20053;-76
2024/01/31 03:51:37;;;;;;;0.10;0.10;;;;;;;4.22;100.00;98100.03;4987183;28;20042;-73
2024/01/31 03:54:23;;;;;;;0.10;0.10;;;;;;;4.23;100.00;98099.03;4987264;28;20043;-71
2024/01/31 03:57:09;;;;;;;0.10;0.10;;;;;;;4.21;100.00;98103.69;4985308;28;20034;-73
2024/01/31 03:59:55;;;;;;;0.20;0.20;;;;;;;4.18;100.00;98100.34;4985862;28;20121;-73
2024/01/31 04:02:41;;;;;;;0.10;0.10;;;;;;;4.22;100.00;98094.75;4987029;28;20103;-71
2024/01/31 04:05:27;;;;;;;0.10;0.10;;;;;;;4.17;100.00;98096.06;4983485;28;20037;-72
2024/01/31 04:08:12;;;;;;;0.10;0.10;;;;;;;4.21;100.00;98095.75;4987290;28;20121;-75
2024/01/31 04:10:58;;;;;;;0.10;0.10;;;;;;;4.24;100.00;98100.69;4988531;28;20042;-73
2024/01/31 04:13:44;;;;;;;0.20;0.20;;;;;;;4.13;100.00;98102.69;4984678;28;20062;-76
2024/01/31 04:16:30;;;;;;;0.10;0.10;;;;;;;4.17;100.00;98100.53;4989193;28;20042;-72
2024/01/31 04:19:16;;;;;;;0.20;0.20;;;;;;;4.11;100.00;98112.63;4987512;28;20042;-76
2024/01/31 04:22:02;;;;;;;0.10;0.10;;;;;;;4.06;100.00;98096.41;4985723;28;20033;-73
2024/01/31 04:24:48;;;;;;;0.10;0.10;;;;;;;4.11;100.00;98101.19;4984999;28;20128;-74
2024/01/31 04:27:33;;;;;;;0.10;0.10;;;;;;;4.14;100.00;98107.00;4990376;28;20624;-73
2024/01/31 04:30:19;;;;;;;0.13;0.13;;;;;;;4.18;100.00;98110.94;4988856;28;20136;-72
2024/01/31 04:33:05;;;;;;;0.20;0.20;;;;;;;4.23;100.00;98099.03;4989871;28;20045;-73
2024/01/31 04:35:51;;;;;;;0.20;0.20;;;;;;;4.24;100.00;98095.38;4988462;28;20425;-74
2024/01/31 04:38:37;;;;;;;0.10;0.10;;;;;;;4.29;100.00;98109.78;4988499;28;20704;-72
2024/01/31 04:41:23;;;;;;;0.10;0.10;;;;;;;4.21;100.00;98095.75;4989751;28;20278;-74
2024/01/31 04:44:09;;;;;;;0.10;0.10;;;;;;;4.30;100.00;98105.31;4988287;28;20149;-75
2024/01/31 04:46:54;;;;;;;0.10;0.10;;;;;;;4.26;100.00;98090.75;4989366;28;21146;-75
2024/01/31 04:49:40;;;;;;;0.10;0.10;;;;;;;4.25;100.00;98103.16;4990180;28;20758;-73
2024/01/31 04:52:26;;;;;;;0.10;0.10;;;;;;;4.26;100.00;98093.38;4988889;28;20038;-75
2024/01/31 04:55:13;;;;;;;0.10;0.10;;;;;;;4.29;100.00;98090.41;4991258;28;20049;-73
2024/01/31 04:58:00;;;;;;;0.17;0.17;;;;;;;4.24;100.00;98080.31;4990788;28;20311;-74
2024/01/31 05:00:46;;;;;;;0.20;0.20;;;;;;;4.20;100.00;98073.69;4989809;28;20069;-73
2024/01/31 05:03:31;;;;;;;0.10;0.10;;;;;;;4.23;100.00;98088.44;4989814;28;20038;-74
2024/01/31 05:06:17;;;;;;;0.20;0.20;;;;;;;4.21;100.00;98082.50;4989158;28;20049;-73
2024/01/31 05:09:03;;;;;;;0.13;0.13;;;;;;;4.24;100.00;98074.19;4991535;28;20508;-74
2024/01/31 05:11:51;;;;;;;0.20;0.20;;;;;;;4.19;100.00;98059.59;4990655;28;20038;-74
2024/01/31 05:14:39;;;;;;;0.10;0.10;;;;;;;4.25;100.00;98060.75;4989738;28;20046;-74
2024/01/31 05:17:27;;;;;;;0.10;0.10;;;;;;;4.13;100.00;98062.13;4992293;28;20581;-73
2024/01/31 05:20:13;;;;;;;0.20;0.20;;;;;;;4.18;100.00;98055.31;4991962;28;20124;-73
2024/01/31 05:22:59;;;;;;;0.10;0.10;;;;;;;4.03;100.00;98041.09;4991525;28;20038;-75
2024/01/31 05:25:46;;;;;;;0.20;0.20;;;;;;;4.19;100.00;98056.13;4991837;28;20128;-74
2024/01/31 05:28:31;;;;;;;0.13;0.13;;;;;;;4.29;100.00;98053.31;4993042;28;20381;-75
2024/01/31 05:31:17;;;;;;;0.10;0.10;;;;;;;4.18;100.00;98043.88;4988524;28;20191;-76
2024/01/31 05:34:03;;;;;;;0.10;0.10;;;;;;;4.07;100.00;98060.97;4992305;28;20416;-74
2024/01/31 05:36:49;;;;;;;0.10;0.10;;;;;;;4.21;100.00;98056.00;4987993;28;20046;-76
2024/01/31 05:39:35;;;;;;;0.10;0.10;;;;;;;4.26;100.00;98049.16;4990273;28;20042;-73
2024/01/31 05:42:21;;;;;;;0.10;0.10;;;;;;;4.33;100.00;98065.22;4961818;28;20054;-73
2024/01/31 05:45:07;;;;;;;0.10;0.10;;;;;;;4.37;100.00;98070.03;4992181;28;20042;-75
2024/01/31 05:47:53;;;;;;;0.10;0.10;;;;;;;4.37;100.00;98069.19;4990430;28;20077;-73
2024/01/31 05:50:38;;;;;;;0.20;0.20;;;;;;;4.41;100.00;98070.50;4992261;28;20042;-72
2024/01/31 05:53:24;;;;;;;0.10;0.10;;;;;;;4.40;100.00;98079.44;4988602;28;20120;-73
2024/01/31 05:56:10;;;;;;;0.20;0.20;;;;;;;4.29;100.00;98071.88;4989063;28;20533;-73
2024/01/31 05:58:56;;;;;;;0.10;0.10;;;;;;;4.32;100.00;98077.66;4989781;28;20410;-74
2024/01/31 06:01:42;;;;;;;0.20;0.20;;;;;;;4.19;100.00;98082.63;4989717;28;20508;-76
2024/01/31 06:04:28;;;;;;;0.20;0.20;;;;;;;4.18;100.00;98078.31;4991430;28;20107;-73
2024/01/31 06:07:13;;;;;;;0.20;0.20;;;;;;;4.23;100.00;98088.44;4988238;28;20385;-75
2024/01/31 06:09:59;;;;;;;0.20;0.20;;;;;;;4.30;100.00;98086.78;4991937;28;20042;-75
2024/01/31 06:12:45;;;;;;;0.20;0.20;;;;;;;4.29;100.00;98095.72;4989359;28;20164;-74
2024/01/31 06:15:31;;;;;;;0.20;0.20;;;;;;;4.27;100.00;98098.50;4988585;28;20038;-73
2024/01/31 06:18:19;;;;;;;0.10;0.10;;;;;;;4.23;100.00;98106.97;4989875;28;20038;-76
2024/01/31 06:21:05;;;;;;;0.10;0.10;;;;;;;4.23;100.00;98104.34;4989037;28;20045;-75
2024/01/31 06:23:51;;;;;;;0.20;0.20;;;;;;;4.13;100.00;98099.22;4989116;28;20511;-74
2024/01/31 06:26:41;;;;;;;0.10;0.10;;;;;;;4.18;100.00;98099.53;4991303;28;20046;-74
2024/01/31 06:29:43;;;;;;;0.20;0.20;;;;;;;4.16;100.00;98082.97;4989784;28;20038;-78
2024/01/31 06:32:49;;;;;;;0.10;0.10;;;;;;;4.04;100.00;98093.09;4989334;28;20046;-72
2024/01/31 06:35:36;;;;;;;0.10;0.10;;;;;;;4.10;100.00;98095.06;4991188;28;20107;-73
2024/01/31 06:38:21;;;;;;;0.10;0.10;;;;;;;4.15;100.00;98095.41;4987979;28;20272;-77
2024/01/31 06:41:07;;;;;;;0.20;0.20;;;;;;;4.24;100.00;98098.88;4990787;28;20046;-74
2024/01/31 06:43:53;;;;;;;0.10;0.10;;;;;;;4.28;100.00;98097.53;4989061;28;20046;-73
2024/01/31 06:46:39;;;;;;;0.20;0.20;;;;;;;4.19;100.00;98088.75;4990613;28;20038;-74
2024/01/31 06:49:25;;;;;;;0.10;0.10;;;;;;;4.28;100.00;98096.69;4986831;28;20053;-76
2024/01/31 06:52:11;;;;;;;0.20;0.20;;;;;;;4.17;100.00;98096.06;4990537;28;20096;-74
2024/01/31 06:54:57;;;;;;;0.10;0.10;;;;;;;4.22;100.00;98105.34;4985274;28;20046;-75
2024/01/31 06:57:42;;;;;;;0.20;0.20;;;;;;;4.21;100.00;98106.34;4988353;28;20096;-75
2024/01/31 07:00:28;;;;;;;0.10;0.10;;;;;;;4.25;100.00;98118.25;4988918;28;20046;-72
2024/01/31 07:03:14;;;;;;;0.10;0.10;;;;;;;4.22;100.00;98107.97;4989975;28;20119;-74
2024/01/31 07:06:00;;;;;;;0.10;0.10;;;;;;;4.24;100.00;98113.94;4986026;28;20046;-75
2024/01/31 07:08:46;;;;;;;0.20;0.20;;;;;;;4.28;100.00;98112.59;4989790;28;20412;-72
2024/01/31 07:11:34;;;;;;;0.10;0.10;;;;;;;4.20;100.00;98124.03;4990342;28;20041;-72
2024/01/31 07:14:20;;;;;;;0.20;0.20;;;;;;;4.16;100.00;98115.59;4986890;28;20046;-72
2024/01/31 07:17:06;;;;;;;0.22;0.22;;;;;;;4.05;100.00;98121.25;4986685;28;20128;-73
2024/01/31 07:19:52;;;;;;;0.10;0.10;;;;;;;4.13;100.00;98115.94;4989168;28;20100;-73
2024/01/31 07:22:37;;;;;;;0.20;0.20;;;;;;;4.17;100.00;98121.72;4986004;28;20409;-75
2024/01/31 07:25:23;;;;;;;0.13;0.13;;;;;;;4.16;100.00;98120.06;4987501;28;20045;-76
2024/01/31 07:28:09;;;;;;;0.20;0.20;;;;;;;4.22;100.00;98123.88;4987355;28;20315;-75
2024/01/31 07:30:55;;;;;;;0.20;0.20;;;;;;;4.26;100.00;98118.06;4987745;28;20081;-77
2024/01/31 07:33:41;;;;;;;0.20;0.20;;;;;;;4.15;100.00;98121.06;4989816;28;20033;-74
2024/01/31 07:36:27;;;;;;;0.17;0.17;;;;;;;4.09;100.00;98119.09;4989217;28;20030;-75
2024/01/31 07:39:14;;;;;;;0.20;0.20;;;;;;;4.10;100.00;98124.22;4991105;28;20132;-74
2024/01/31 07:42:00;;;;;;;0.20;0.20;;;;;;;4.19;100.00;98120.56;4987625;28;20042;-73
2024/01/31 07:44:46;;;;;;;0.20;0.20;;;;;;;4.25;100.00;98119.06;4988773;28;20056;-76
2024/01/31 07:47:32;;;;;;;0.10;0.10;;;;;;;4.21;100.00;98127.53;4987521;28;20563;-75
2024/01/31 07:50:18;;;;;;;0.17;0.17;;;;;;;4.15;100.00;98132.50;4989598;28;20416;-76
2024/01/31 07:53:04;;;;;;;0.10;0.10;;;;;;;4.23;100.00;98125.53;4988589;28;20042;-73
2024/01/31 07:55:49;;;;;;;0.20;0.20;;;;;;;4.30;100.00;98137.13;4986086;28;20056;-75
2024/01/31 07:58:35;;;;;;;0.10;0.10;;;;;;;4.00;100.00;98134.16;4987886;28;20050;-74
2024/01/31 08:01:21;;;;;;;0.20;0.20;;;;;;;3.99;100.00;98139.63;4985225;28;20058;-74
2024/01/31 08:04:07;;;;;;;0.20;0.20;;;;;;;3.99;100.00;98140.47;4993200;28;20045;-73
2024/01/31 08:06:54;;;;;;;0.10;0.10;;;;;;;4.15;100.00;98126.38;5005176;28;20598;-73
2024/01/31 08:09:40;;;;;;;0.20;0.20;;;;;;;4.16;100.00;98120.91;4993235;28;20567;-76
2024/01/31 08:12:26;;;;;;;0.15;0.15;;;;;;;4.21;100.00;98128.34;4992931;28;20546;-75
2024/01/31 08:15:12;;;;;;;0.10;0.10;;;;;;;4.03;100.00;98109.97;4993836;28;20145;-73
2024/01/31 08:17:58;;;;;;;0.10;0.10;;;;;;;4.05;100.00;98112.47;4991199;28;20046;-75
2024/01/31 08:20:44;;;;;;;0.13;0.13;;;;;;;4.03;100.00;98111.81;4992671;28;20058;-73
2024/01/31 08:23:30;;;;;;;0.20;0.20;;;;;;;4.23;100.00;98120.25;4990618;28;20030;-74
2024/01/31 08:26:19;;;;;;;0.10;0.10;;;;;;;4.21;100.00;98120.41;4990455;28;20037;-73
2024/01/31 08:29:06;;;;;;;0.20;0.20;;;;;;;4.29;100.00;98124.88;4991124;28;20050;-76
2024/01/31 08:31:51;;;;;;;0.20;0.20;;;;;;;4.35;100.00;98126.81;4992485;28;20046;-74
2024/01/31 08:34:37;;;;;;;0.10;0.10;;;;;;;4.46;100.00;98123.84;4992092;28;20042;-72
2024/01/31 08:37:23;;;;;;;0.20;0.20;;;;;;;4.54;100.00;98118.50;4991817;28;20073;-76
2024/01/31 08:40:10;;;;;;;0.20;0.20;;;;;;;4.33;100.00;98115.56;4991692;28;20074;-74
2024/01/31 08:42:58;;;;;;;0.10;0.10;;;;;;;4.46;100.00;98124.66;4992624;28;20046;-74
2024/01/31 08:45:44;;;;;;;0.20;0.20;;;;;;;4.34;100.00;98117.22;4992998;28;20548;-73
2024/01/31 08:48:31;;;;;;;0.20;0.20;;;;;;;4.35;100.00;98122.34;4990369;28;20074;-72
2024/01/31 08:51:18;;;;;;;0.20;0.20;;;;;;;4.38;100.00;98123.84;4989515;28;20519;-75
2024/01/31 08:54:06;;;;;;;0.10;0.10;;;;;;;4.27;100.00;98110.94;4963345;28;20046;-76
2024/01/31 08:56:51;;;;;;;0.10;0.10;;;;;;;4.19;100.00;98117.06;4990588;28;20038;-76
2024/01/31 08:59:37;;;;;;;0.10;0.10;;;;;;;4.17;100.00;98113.78;4990833;28;20153;-73
2024/01/31 09:02:23;;;;;;;0.15;0.15;;;;;;;4.19;100.00;98114.44;4989485;28;20058;-75
2024/01/31 09:05:12;;;;;;;0.10;0.10;;;;;;;4.24;100.00;98117.41;4989622;28;20515;-75
2024/01/31 09:07:59;;;;;;;0.13;0.13;;;;;;;4.23;100.00;98121.06;4987440;28;20111;-73
2024/01/31 09:10:45;;;;;;;0.20;0.20;;;;;;;4.25;100.00;98131.50;4989374;28;20050;-73
2024/01/31 09:13:31;;;;;;;0.10;0.10;;;;;;;4.22;100.00;98107.97;4990829;28;20045;-73
2024/01/31 09:16:16;;;;;;;0.20;0.20;;;;;;;4.23;100.00;98128.19;4988786;28;20042;-76
2024/01/31 09:19:03;;;;;;;0.20;0.20;;;;;;;4.47;100.00;98131.63;4989845;28;20073;-75
2024/01/31 09:21:50;;;;;;;0.10;0.10;;;;;;;4.39;100.00;98136.09;4987915;28;20455;-73
2024/01/31 09:24:39;;;;;;;0.15;0.15;;;;;;;4.55;100.00;98149.31;5001873;28;20092;-75
2024/01/31 09:27:25;;;;;;;0.20;0.20;;;;;;;4.69;100.00;98159.25;4989240;28;20125;-74
2024/01/31 09:30:11;;;;;;;0.20;0.20;;;;;;;4.71;100.00;98140.50;4991967;28;20445;-73
2024/01/31 09:33:00;;;;;;;0.20;0.20;;;;;;;4.81;100.00;98146.44;4990407;28;20058;-74
2024/01/31 09:35:46;;;;;;;0.15;0.15;;;;;;;4.93;100.00;98141.59;4989206;28;20827;-73
2024/01/31 09:38:34;;;;;;;0.30;0.30;;;;;;;4.99;100.00;98143.56;4990532;28;20136;-73
2024/01/31 09:41:20;;;;;;;0.10;0.10;;;;;;;5.01;100.00;98145.03;4991199;28;20045;-73
2024/01/31 09:44:09;;;;;;;0.20;0.20;;;;;;;4.94;100.00;98130.81;4984963;28;20039;-74
2024/01/31 09:46:57;;;;;;;0.20;0.20;;;;;;;4.85;100.00;98136.31;4988365;28;20041;-75
2024/01/31 09:49:42;;;;;;;0.20;0.20;;;;;;;4.81;100.00;98138.47;4988729;28;20377;-72
2024/01/31 09:52:29;;;;;;;0.10;0.10;;;;;;;4.84;100.00;98137.31;4989877;28;20046;-73
2024/01/31 09:55:15;;;;;;;0.10;0.10;;;;;;;4.78;100.00;98148.59;4962416;28;20049;-71
2024/01/31 09:58:04;;;;;;;0.20;0.20;;;;;;;4.81;100.00;98150.91;4984621;28;20054;-74
2024/01/31 10:00:51;;;;;;;0.17;0.17;;;;;;;4.87;100.00;98153.72;4990431;28;20107;-73
2024/01/31 10:03:37;;;;;;;0.20;0.20;;;;;;;4.86;100.00;98152.06;4986400;28;20490;-75
2024/01/31 10:06:29;;;;;;;0.30;0.30;;;;;;;4.91;100.00;98156.88;4986573;28;20065;-76
2024/01/31 10:09:15;;;;;;;0.20;0.20;;;;;;;4.83;100.00;98154.25;4988050;28;20045;-74
2024/01/31 10:12:01;;;;;;;0.20;0.20;;;;;;;4.81;100.00;98153.56;5005516;28;20274;-74
2024/01/31 10:14:48;;;;;;;0.17;0.17;;;;;;;4.77;100.00;98174.31;4986471;28;20041;-74
2024/01/31 10:17:34;;;;;;;0.22;0.20;;;;;;;4.82;100.00;98168.47;4989504;28;20038;-72
2024/01/31 10:20:20;;;;;;;0.20;0.20;;;;;;;4.85;100.00;98157.53;4991110;28;20034;-72
2024/01/31 10:23:06;;;;;;;0.10;0.10;;;;;;;4.78;100.00;98161.88;4990495;28;20045;-75
2024/01/31 10:25:52;;;;;;;0.20;0.20;;;;;;;4.89;100.00;98161.50;4987263;28;20060;-74
2024/01/31 10:28:40;;;;;;;0.20;0.20;;;;;;;4.83;100.00;98162.19;4990296;28;20069;-77
2024/01/31 10:31:29;;;;;;;0.20;0.20;;;;;;;4.87;100.00;98156.34;4990194;28;20084;-79
2024/01/31 10:34:16;;;;;;;0.17;0.17;;;;;;;4.89;100.00;98164.13;4989060;28;20045;-74
2024/01/31 10:37:04;;;;;;;0.10;0.10;;;;;;;4.84;100.00;98162.03;4989443;28;20073;-73
2024/01/31 10:39:52;;;;;;;0.20;0.20;;;;;;;4.89;100.00;98162.31;4989101;28;20409;-73
2024/01/31 10:42:38;;;;;;;0.20;0.20;;;;;;;4.87;100.00;98152.88;4987585;28;20056;-72
2024/01/31 10:45:26;;;;;;;0.20;0.20;;;;;;;4.87;100.00;98150.22;4987567;28;20042;-73
2024/01/31 10:48:11;;;;;;;0.10;0.10;;;;;;;4.82;100.00;98140.13;4988526;28;20168;-75
2024/01/31 10:51:00;;;;;;;0.10;0.10;;;;;;;4.72;100.00;98135.03;4990423;28;20292;-73
2024/01/31 10:53:46;;;;;;;0.20;0.20;;;;;;;4.82;100.00;98131.34;4987127;28;20489;-73
2024/01/31 10:56:33;;;;;;;0.13;0.13;;;;;;;4.81;100.00;98127.88;4983385;28;20413;-73
2024/01/31 10:59:19;;;;;;;0.20;0.20;;;;;;;4.87;100.00;98118.41;4996828;28;20379;-72
2024/01/31 11:02:14;;;;;;;0.20;0.20;;;;;;;4.52;100.00;98117.88;4985596;28;20133;-76
2024/01/31 11:05:01;;;;;;;0.15;0.15;;;;;;;4.48;100.00;98113.88;4986819;28;20444;-76
2024/01/31 11:07:47;;;;;;;0.10;0.10;;;;;;;4.42;100.00;98103.94;4986322;28;20147;-73
2024/01/31 11:10:35;;;;;;;0.10;0.10;;;;;;;4.41;100.00;98102.31;4984199;28;20537;-75
2024/01/31 11:13:21;;;;;;;0.10;0.10;;;;;;;4.43;100.00;98097.66;4987815;28;20832;-73
2024/01/31 11:16:07;;;;;;;0.17;0.17;;;;;;;4.60;100.00;98085.19;4987292;28;20592;-73
2024/01/31 11:18:53;;;;;;;0.10;0.10;;;;;;;4.39;100.00;98086.56;4988550;28;20467;-74
2024/01/31 11:21:39;;;;;;;0.10;0.10;;;;;;;4.63;100.00;98088.31;4985274;28;20156;-75
2024/01/31 11:24:25;;;;;;;0.20;0.20;;;;;;;4.68;100.00;98093.94;4987423;28;20560;-73
2024/01/31 11:27:12;;;;;;;0.10;0.10;;;;;;;4.83;100.00;98091.41;4987117;28;20056;-74
2024/01/31 11:29:58;;;;;;;0.15;0.15;;;;;;;4.94;100.00;98076.91;4988077;28;20046;-73
2024/01/31 11:32:44;;;;;;;0.17;0.17;;;;;;;5.00;100.00;98082.38;4989246;28;20060;-73
2024/01/31 11:35:31;;;;;;;0.20;0.20;;;;;;;5.07;100.00;98079.03;4987226;28;20052;-73
2024/01/31 11:38:17;;;;;;;0.20;0.20;;;;;;;5.07;100.00;98069.22;4992206;28;20077;-76
2024/01/31 11:41:03;;;;;;;0.20;0.20;;;;;;;4.94;100.00;98064.47;4990373;28;20536;-73
2024/01/31 11:43:49;;;;;;;0.10;0.10;;;;;;;4.96;100.00;98059.81;4994206;28;20079;-76
2024/01/31 11:46:35;;;;;;;0.20;0.20;;;;;;;4.43;100.00;98052.59;4992993;28;20484;-76
2024/01/31 11:49:22;;;;;;;0.15;0.15;;;;;;;4.43;100.00;98052.59;4994315;28;20058;-75
2024/01/31 11:52:08;;;;;;;0.20;0.20;;;;;;;4.59;100.00;98041.09;4993429;28;20061;-73
2024/01/31 11:54:54;;;;;;;0.17;0.17;;;;;;;4.58;100.00;98031.50;4982819;28;20056;-74
2024/01/31 11:57:40;;;;;;;0.17;0.17;;;;;;;4.36;100.00;98033.91;4991894;28;20348;-75
2024/01/31 12:00:26;;;;;;;0.20;0.20;;;;;;;4.46;100.00;98023.09;4989186;28;20432;-73
2024/01/31 12:03:13;;;;;;;0.20;0.20;;;;;;;4.44;100.00;98011.84;4993932;28;20131;-73
2024/01/31 12:05:59;;;;;;;0.10;0.10;;;;;;;4.37;100.00;98000.28;4994578;28;20885;-74
2024/01/31 12:08:47;;;;;;;0.20;0.20;;;;;;;4.47;100.00;98000.91;4988181;28;20401;-76
2024/01/31 12:11:33;;;;;;;0.10;0.10;;;;;;;4.55;100.00;97992.06;4990669;28;20681;-77
2024/01/31 12:14:21;;;;;;;0.10;0.10;;;;;;;4.58;100.00;97983.75;4990342;28;20038;-75
2024/01/31 12:17:26;;;;;;;0.20;0.20;;;;;;;4.66;100.00;97989.84;4991867;28;20132;-75
2024/01/31 12:20:12;;;;;;;0.10;0.10;;;;;;;4.66;100.00;97987.19;4992757;28;20034;-73
2024/01/31 12:22:58;;;;;;;0.20;0.20;;;;;;;4.81;100.00;97981.97;4993354;28;20404;-74
2024/01/31 12:25:44;;;;;;;0.20;0.20;;;;;;;4.52;100.00;97998.56;4989959;28;20050;-74
2024/01/31 12:28:30;;;;;;;0.10;0.10;;;;;;;4.88;100.00;97998.84;4990893;28;20743;-73
2024/01/31 12:31:16;;;;;;;0.20;0.20;;;;;;;4.84;100.00;97992.25;4992752;28;20221;-73
2024/01/31 12:34:04;;;;;;;0.20;0.20;;;;;;;4.62;100.00;97990.38;4991388;28;20118;-75
2024/01/31 12:36:50;;;;;;;0.17;0.17;;;;;;;4.46;100.00;97989.47;4989891;28;20121;-74
2024/01/31 12:39:36;;;;;;;0.20;0.20;;;;;;;4.52;100.00;98000.38;4991286;28;20042;-75
2024/01/31 12:42:22;;;;;;;0.15;0.15;;;;;;;4.32;100.00;97984.88;4990036;28;20034;-77
2024/01/31 12:45:08;;;;;;;0.20;0.20;;;;;;;4.54;100.00;97979.81;4990363;28;20072;-74
2024/01/31 12:47:54;;;;;;;0.20;0.20;;;;;;;4.79;100.00;97977.84;4990040;28;20104;-75
2024/01/31 12:50:40;;;;;;;0.10;0.10;;;;;;;4.97;100.00;97978.41;4988561;28;20046;-77
2024/01/31 12:53:28;;;;;;;0.20;0.20;;;;;;;4.84;100.00;97972.88;4990316;28;20038;-77
2024/01/31 12:56:14;;;;;;;0.20;0.20;;;;;;;4.99;100.00;97971.94;4997154;28;20058;-76
2024/01/31 12:59:00;;;;;;;0.13;0.13;;;;;;;5.07;100.00;97968.41;4990009;28;20460;-73
2024/01/31 13:01:46;;;;;;;0.20;0.20;;;;;;;5.11;100.00;97969.69;4986179;28;20054;-77
2024/01/31 13:04:32;;;;;;;0.10;0.10;;;;;;;5.08;100.00;97972.69;4989982;28;20050;-74